Time;durP1;ratioP1;P1;durP2;ratioP2;P2;SDS_P1;SDS_P2;PMS_P1;PMS_P2;Temp;Humidity;BMP_temperature;BMP_pressure;BME280_temperature;BME280_humidity;BME280_pressure;Samples;Min_cycle;Max_cycle;Signal;HPM_P1;HPM_P2
2023/10/07 00:02:17;;;;;;;0.10;0.10;;;9.60;99.90;;;;;;5096826;28;20222;-63
2023/10/07 00:04:44;;;;;;;0.00;0.00;;;9.60;99.90;;;;;;5090557;28;20180;-63
2023/10/07 00:07:11;;;;;;;0.00;0.00;;;9.60;99.90;;;;;;5090761;28;20263;-63
2023/10/07 00:09:44;;;;;;;0.13;0.13;;;9.60;99.90;;;;;;5090713;28;20204;-61
2023/10/07 00:12:14;;;;;;;0.40;0.40;;;9.50;99.90;;;;;;5086622;28;20230;-61
2023/10/07 00:14:41;;;;;;;0.00;0.00;;;9.50;99.90;;;;;;5090636;28;20176;-61
2023/10/07 00:17:16;;;;;;;0.32;0.32;;;9.50;99.90;;;;;;5090161;28;20208;-62
2023/10/07 00:19:42;;;;;;;0.17;0.17;;;9.50;99.90;;;;;;5090274;28;20188;-62
2023/10/07 00:22:13;;;;;;;0.10;0.10;;;9.50;99.90;;;;;;5086121;28;20204;-62
2023/10/07 00:24:43;;;;;;;0.00;0.00;;;9.50;99.90;;;;;;5093313;28;20199;-62
2023/10/07 00:27:29;;;;;;;0.00;0.00;;;9.50;99.90;;;;;;5094232;28;20172;-62
2023/10/07 00:29:55;;;;;;;0.13;0.13;;;9.50;99.90;;;;;;5094117;28;20199;-62
2023/10/07 00:32:32;;;;;;;0.00;0.00;;;9.50;99.90;;;;;;5094197;28;20890;-62
2023/10/07 00:35:01;;;;;;;0.08;0.08;;;9.40;99.90;;;;;;5094320;28;20172;-62
2023/10/07 00:37:30;;;;;;;0.00;0.00;;;9.40;99.90;;;;;;5094162;28;20190;-63
2023/10/07 00:40:00;;;;;;;0.17;0.17;;;9.40;99.90;;;;;;5092717;28;20188;-62
2023/10/07 00:42:26;;;;;;;0.00;0.00;;;9.40;99.90;;;;;;5093921;28;20216;-62
2023/10/07 00:44:53;;;;;;;0.00;0.00;;;9.40;99.90;;;;;;5094216;28;20192;-62
2023/10/07 00:47:20;;;;;;;0.00;0.00;;;9.40;99.90;;;;;;5094136;28;20180;-61
2023/10/07 00:55:17;;;;;;;0.20;0.20;;;9.30;99.90;;;;;;5085395;28;20199;-62
2023/10/07 00:58:03;;;;;;;0.00;0.00;;;9.30;99.90;;;;;;5094119;28;20187;-62
2023/10/07 01:03:12;;;;;;;0.35;0.22;;;9.20;99.90;;;;;;5093890;28;20662;-62
2023/10/07 01:05:44;;;;;;;0.00;0.00;;;9.20;99.90;;;;;;5093640;28;20643;-62
2023/10/07 01:08:12;;;;;;;1.13;0.95;;;9.20;99.90;;;;;;5093676;28;20215;-62
2023/10/07 01:10:39;;;;;;;0.00;0.00;;;9.20;99.90;;;;;;5093596;28;20226;-62
2023/10/07 01:13:24;;;;;;;0.10;0.10;;;9.20;99.90;;;;;;5093644;28;20184;-62
2023/10/07 01:15:50;;;;;;;0.00;0.00;;;9.10;99.90;;;;;;5093660;28;20203;-62
2023/10/07 01:18:19;;;;;;;0.10;0.10;;;9.10;99.90;;;;;;5086251;28;20187;-62
2023/10/07 01:23:24;;;;;;;0.08;0.08;;;9.10;99.90;;;;;;5093083;28;20569;-62
2023/10/07 01:25:53;;;;;;;0.00;0.00;;;9.00;99.90;;;;;;5093383;28;20309;-62
2023/10/07 01:28:20;;;;;;;0.00;0.00;;;9.00;99.90;;;;;;5092210;28;20229;-61
2023/10/07 01:31:07;;;;;;;0.10;0.10;;;8.90;99.90;;;;;;5092928;28;20215;-61
2023/10/07 01:33:48;;;;;;;0.00;0.00;;;8.90;99.90;;;;;;5093020;28;20168;-61
2023/10/07 01:36:24;;;;;;;0.00;0.00;;;9.00;99.90;;;;;;5092588;28;20180;-61
2023/10/07 01:38:53;;;;;;;0.00;0.00;;;8.90;99.90;;;;;;5092891;28;20310;-62
2023/10/07 01:41:20;;;;;;;0.00;0.00;;;8.90;99.90;;;;;;5092613;28;20180;-61
2023/10/07 01:43:59;;;;;;;0.35;0.35;;;8.90;99.90;;;;;;5091361;28;20180;-61
2023/10/07 01:46:27;;;;;;;1.00;0.95;;;8.80;99.90;;;;;;5088987;28;20180;-62
2023/10/07 01:48:57;;;;;;;0.20;0.20;;;8.80;99.90;;;;;;5092967;28;20175;-62
2023/10/07 01:51:27;;;;;;;0.10;0.10;;;8.80;99.90;;;;;;5092643;28;20207;-60
2023/10/07 01:53:58;;;;;;;0.00;0.00;;;8.70;99.90;;;;;;5092247;28;20184;-60
2023/10/07 01:56:29;;;;;;;0.00;0.00;;;8.70;99.90;;;;;;5076955;28;20172;-60
2023/10/07 01:58:57;;;;;;;0.00;0.00;;;8.70;99.90;;;;;;5092671;28;20187;-61
2023/10/07 02:01:24;;;;;;;0.00;0.00;;;8.70;99.90;;;;;;5092469;28;20180;-61
2023/10/07 02:03:49;;;;;;;0.00;0.00;;;8.60;99.90;;;;;;5092449;28;20577;-60
2023/10/07 02:06:18;;;;;;;0.00;0.00;;;8.60;99.90;;;;;;5092292;28;20168;-60
2023/10/07 02:08:45;;;;;;;0.00;0.00;;;8.50;99.90;;;;;;5092459;28;20184;-61
2023/10/07 02:11:11;;;;;;;0.00;0.00;;;8.60;99.90;;;;;;5092568;28;20187;-60
2023/10/07 02:13:36;;;;;;;0.10;0.10;;;8.40;99.90;;;;;;5092305;28;20179;-60
2023/10/07 02:16:06;;;;;;;0.38;0.38;;;8.50;99.90;;;;;;5092129;28;20335;-60
2023/10/07 02:18:35;;;;;;;0.00;0.00;;;8.50;99.90;;;;;;5081988;28;20558;-60
2023/10/07 02:21:16;;;;;;;0.63;0.63;;;8.50;99.90;;;;;;5092404;28;20259;-60
2023/10/07 02:23:43;;;;;;;0.10;0.10;;;8.50;99.90;;;;;;5091054;28;20194;-60
2023/10/07 02:26:20;;;;;;;0.00;0.00;;;8.50;99.90;;;;;;5092157;28;20208;-60
2023/10/07 02:28:53;;;;;;;0.00;0.00;;;8.50;99.90;;;;;;5091861;28;20199;-60
2023/10/07 02:31:23;;;;;;;0.00;0.00;;;8.50;99.90;;;;;;5092063;28;20708;-60
2023/10/07 02:33:57;;;;;;;0.00;0.00;;;8.40;99.90;;;;;;5091778;28;20666;-60
2023/10/07 02:36:32;;;;;;;0.00;0.00;;;8.40;99.90;;;;;;5091990;28;20175;-59
2023/10/07 02:39:18;;;;;;;0.00;0.00;;;8.40;99.90;;;;;;5091782;28;20211;-60
2023/10/07 02:41:46;;;;;;;0.00;0.00;;;8.40;99.90;;;;;;5091700;28;20204;-59
2023/10/07 02:44:16;;;;;;;0.00;0.00;;;8.40;99.90;;;;;;5091440;28;20184;-60
2023/10/07 02:46:42;;;;;;;0.00;0.00;;;8.40;99.90;;;;;;5090500;28;20172;-60
2023/10/07 02:49:10;;;;;;;0.10;0.10;;;8.40;99.90;;;;;;5091659;28;20661;-60
2023/10/07 02:51:46;;;;;;;0.28;0.28;;;8.40;99.90;;;;;;5091202;28;20188;-60
2023/10/07 02:54:18;;;;;;;0.38;0.38;;;8.40;99.90;;;;;;5089854;28;20263;-60
2023/10/07 02:57:09;;;;;;;0.08;0.08;;;8.40;99.90;;;;;;5091226;28;20181;-60
2023/10/07 02:59:36;;;;;;;0.00;0.00;;;8.30;99.90;;;;;;5091214;28;20188;-60
2023/10/07 03:02:12;;;;;;;0.00;0.00;;;8.30;99.90;;;;;;5091069;28;20208;-60
2023/10/07 03:04:42;;;;;;;0.05;0.05;;;8.30;99.90;;;;;;5091177;28;20180;-60
2023/10/07 03:07:14;;;;;;;0.00;0.00;;;8.30;99.90;;;;;;5091442;28;20176;-60
2023/10/07 03:12:29;;;;;;;0.00;0.00;;;8.30;99.90;;;;;;5091746;28;20211;-61
2023/10/07 03:14:58;;;;;;;0.10;0.10;;;8.30;99.90;;;;;;5091059;28;20208;-60
2023/10/07 03:17:33;;;;;;;0.00;0.00;;;8.30;99.90;;;;;;5091125;28;20222;-60
2023/10/07 03:20:23;;;;;;;0.00;0.00;;;8.30;99.90;;;;;;5091604;28;20269;-60
2023/10/07 03:23:10;;;;;;;0.00;0.00;;;8.30;99.90;;;;;;5090823;28;20215;-60
2023/10/07 03:25:49;;;;;;;0.10;0.10;;;8.20;99.90;;;;;;5090748;28;20176;-60
2023/10/07 03:28:18;;;;;;;0.00;0.00;;;8.20;99.90;;;;;;5089390;28;20270;-60
2023/10/07 03:30:51;;;;;;;0.00;0.00;;;8.20;99.90;;;;;;5091107;28;20677;-60
2023/10/07 03:33:42;;;;;;;0.00;0.00;;;8.20;99.90;;;;;;5090934;28;20210;-60
2023/10/07 03:36:26;;;;;;;0.00;0.00;;;8.10;99.90;;;;;;5090934;28;20183;-60
2023/10/07 03:41:52;;;;;;;0.00;0.00;;;8.20;99.90;;;;;;5089750;28;20207;-59
2023/10/07 03:44:23;;;;;;;0.00;0.00;;;8.10;99.90;;;;;;5089637;28;20191;-59
2023/10/07 03:46:54;;;;;;;0.00;0.00;;;8.20;99.90;;;;;;5090432;28;20615;-59
2023/10/07 03:49:21;;;;;;;0.00;0.00;;;8.10;99.90;;;;;;5073263;28;20180;-59
2023/10/07 03:52:03;;;;;;;0.10;0.10;;;8.20;99.90;;;;;;5090623;28;20191;-61
2023/10/07 03:54:30;;;;;;;0.05;0.05;;;8.10;99.90;;;;;;5090279;28;20302;-60
2023/10/07 03:56:56;;;;;;;0.30;0.30;;;8.10;99.90;;;;;;5077723;28;20683;-60
2023/10/07 03:59:22;;;;;;;0.05;0.05;;;8.10;99.90;;;;;;5093393;28;20270;-60
2023/10/07 04:01:53;;;;;;;0.00;0.00;;;8.10;99.90;;;;;;5094811;28;20292;-60
2023/10/07 04:04:22;;;;;;;0.00;0.00;;;8.10;99.90;;;;;;5094608;28;20199;-60
2023/10/07 04:06:51;;;;;;;0.00;0.00;;;8.10;99.90;;;;;;5094712;28;20564;-60
2023/10/07 04:09:17;;;;;;;0.00;0.00;;;8.10;99.90;;;;;;5094761;28;20176;-60
2023/10/07 04:11:48;;;;;;;0.00;0.00;;;8.10;99.90;;;;;;5094629;28;20184;-60
2023/10/07 04:14:27;;;;;;;0.00;0.00;;;8.10;99.90;;;;;;5094455;28;20206;-59
2023/10/07 04:16:54;;;;;;;0.00;0.00;;;8.10;99.90;;;;;;5094432;28;20207;-59
2023/10/07 04:21:51;;;;;;;0.00;0.00;;;8.10;99.90;;;;;;5094332;28;20211;-59
2023/10/07 04:24:18;;;;;;;0.50;0.50;;;8.10;99.90;;;;;;5094007;28;20610;-59
2023/10/07 04:26:54;;;;;;;0.00;0.00;;;8.10;99.90;;;;;;5094159;28;20202;-59
2023/10/07 04:29:21;;;;;;;0.00;0.00;;;8.10;99.90;;;;;;5093929;28;20176;-60
2023/10/07 04:31:54;;;;;;;0.00;0.00;;;8.10;99.90;;;;;;5093958;28;20259;-61
2023/10/07 04:34:24;;;;;;;0.00;0.00;;;8.10;99.90;;;;;;5094050;28;20176;-60
2023/10/07 04:39:31;;;;;;;0.00;0.00;;;8.10;99.90;;;;;;5093866;28;20686;-61
2023/10/07 04:41:58;;;;;;;0.10;0.10;;;8.10;99.90;;;;;;5093808;28;20218;-61
2023/10/07 04:50:06;;;;;;;0.00;0.00;;;8.30;99.90;;;;;;5092294;28;20187;-62
2023/10/07 04:52:33;;;;;;;0.28;0.28;;;8.30;99.90;;;;;;5094213;28;20179;-62
2023/10/07 04:55:01;;;;;;;0.00;0.00;;;8.30;99.90;;;;;;5093717;28;20173;-62
2023/10/07 05:02:59;;;;;;;0.10;0.10;;;8.40;99.90;;;;;;5082191;28;20210;-61
2023/10/07 05:05:30;;;;;;;0.00;0.00;;;8.50;99.90;;;;;;5093386;28;20172;-63
2023/10/07 05:07:58;;;;;;;0.00;0.00;;;8.60;99.90;;;;;;5093561;28;20219;-62
2023/10/07 05:10:28;;;;;;;0.05;0.05;;;8.60;99.90;;;;;;5092481;28;20571;-62
2023/10/07 05:12:55;;;;;;;0.10;0.10;;;8.60;99.90;;;;;;5093238;28;20180;-61
2023/10/07 05:15:21;;;;;;;0.00;0.00;;;8.60;99.90;;;;;;5093513;28;20234;-61
2023/10/07 05:17:47;;;;;;;0.00;0.00;;;8.60;99.90;;;;;;5092852;28;20184;-61
2023/10/07 05:20:27;;;;;;;0.10;0.10;;;8.50;99.90;;;;;;5093614;28;20521;-62
2023/10/07 05:22:56;;;;;;;0.00;0.00;;;8.50;99.90;;;;;;5092318;28;20667;-63
2023/10/07 05:25:22;;;;;;;0.00;0.00;;;8.50;99.90;;;;;;5091690;28;20186;-62
2023/10/07 05:27:50;;;;;;;0.00;0.00;;;8.50;99.90;;;;;;5093392;28;20255;-62
2023/10/07 05:30:16;;;;;;;0.00;0.00;;;8.50;99.90;;;;;;5093487;28;20184;-62
2023/10/07 05:32:42;;;;;;;0.00;0.00;;;8.50;99.90;;;;;;5091676;28;20635;-61
2023/10/07 05:35:08;;;;;;;0.03;0.03;;;8.60;99.90;;;;;;5093205;28;20172;-62
2023/10/07 05:37:34;;;;;;;0.00;0.00;;;8.60;99.90;;;;;;5092793;28;20667;-62
2023/10/07 05:40:02;;;;;;;0.00;0.00;;;8.60;99.90;;;;;;5093006;28;20184;-63
2023/10/07 05:42:28;;;;;;;0.00;0.00;;;8.60;99.90;;;;;;5092865;28;20211;-62
2023/10/07 05:44:53;;;;;;;0.03;0.03;;;8.60;99.90;;;;;;5092393;28;20247;-63
2023/10/07 05:47:19;;;;;;;0.22;0.22;;;8.70;99.90;;;;;;5092425;28;20184;-62
2023/10/07 05:49:44;;;;;;;0.00;0.00;;;8.80;99.90;;;;;;5092281;28;20192;-63
2023/10/07 05:52:10;;;;;;;0.00;0.00;;;8.80;99.90;;;;;;5092147;28;20188;-64
2023/10/07 05:54:35;;;;;;;0.15;0.15;;;8.80;99.90;;;;;;5091275;28;20172;-62
2023/10/07 05:57:07;;;;;;;0.00;0.00;;;8.90;99.90;;;;;;5092815;28;20681;-61
2023/10/07 05:59:33;;;;;;;0.00;0.00;;;8.90;99.90;;;;;;5107718;28;20187;-62
2023/10/07 06:02:05;;;;;;;0.00;0.00;;;9.00;99.90;;;;;;5113410;28;20223;-64
2023/10/07 06:04:31;;;;;;;0.00;0.00;;;9.00;99.90;;;;;;5113384;28;20198;-63
2023/10/07 06:06:57;;;;;;;0.00;0.00;;;9.10;99.90;;;;;;5113350;28;20195;-62
2023/10/07 06:09:22;;;;;;;0.00;0.00;;;9.20;99.90;;;;;;5110138;28;20265;-62
2023/10/07 06:11:48;;;;;;;0.00;0.00;;;9.30;99.90;;;;;;5092785;28;20617;-62
2023/10/07 06:14:18;;;;;;;0.00;0.00;;;9.50;99.90;;;;;;5092493;28;20184;-62
2023/10/07 06:16:44;;;;;;;0.00;0.00;;;9.60;99.90;;;;;;5088853;28;20316;-63
2023/10/07 06:19:13;;;;;;;0.00;0.00;;;9.80;99.90;;;;;;5092794;28;20635;-62
2023/10/07 06:21:50;;;;;;;0.00;0.00;;;10.00;99.90;;;;;;5091632;28;20594;-62
2023/10/07 06:24:21;;;;;;;0.00;0.00;;;10.10;99.90;;;;;;5092438;28;20176;-62
2023/10/07 06:26:53;;;;;;;0.00;0.00;;;10.20;99.90;;;;;;5092617;28;20259;-63
2023/10/07 06:29:18;;;;;;;0.00;0.00;;;10.40;99.90;;;;;;5092666;28;20180;-62
2023/10/07 06:32:12;;;;;;;0.00;0.00;;;10.50;99.90;;;;;;5092283;28;20229;-63
2023/10/07 06:34:41;;;;;;;0.20;0.20;;;10.60;99.90;;;;;;5092233;28;20226;-61
2023/10/07 06:37:07;;;;;;;0.00;0.00;;;10.80;99.90;;;;;;5091524;28;20184;-62
2023/10/07 06:39:32;;;;;;;0.00;0.00;;;10.90;99.90;;;;;;5091125;28;20302;-62
2023/10/07 06:41:58;;;;;;;0.00;0.00;;;11.10;99.90;;;;;;5091607;28;20299;-63
2023/10/07 06:44:24;;;;;;;0.00;0.00;;;11.30;99.90;;;;;;5092114;28;20184;-63
2023/10/07 06:46:55;;;;;;;0.00;0.00;;;11.40;99.90;;;;;;5091900;28;20187;-64
2023/10/07 06:49:21;;;;;;;0.00;0.00;;;11.50;99.90;;;;;;5090585;28;20180;-65
2023/10/07 06:51:56;;;;;;;0.10;0.10;;;11.60;99.90;;;;;;5078863;28;20587;-65
2023/10/07 06:54:34;;;;;;;0.00;0.00;;;11.60;99.90;;;;;;5091356;28;20206;-64
2023/10/07 06:57:04;;;;;;;0.25;0.25;;;11.70;99.90;;;;;;5091957;28;20586;-64
2023/10/07 06:59:29;;;;;;;0.00;0.00;;;11.80;99.90;;;;;;5093368;28;20172;-64
2023/10/07 07:01:57;;;;;;;0.00;0.00;;;12.00;99.90;;;;;;5108718;28;20207;-63
2023/10/07 07:04:23;;;;;;;0.00;0.00;;;12.10;99.90;;;;;;5104101;28;20192;-62
2023/10/07 07:09:57;;;;;;;0.10;0.10;;;12.30;99.90;;;;;;5069691;28;20678;-62
2023/10/07 07:12:23;;;;;;;0.00;0.00;;;12.40;99.90;;;;;;5083767;28;20279;-63
2023/10/07 07:15:04;;;;;;;0.00;0.00;;;12.40;99.90;;;;;;5091555;28;20267;-63
2023/10/07 07:17:43;;;;;;;0.00;0.00;;;12.50;99.90;;;;;;5089955;28;20188;-64
2023/10/07 07:22:35;;;;;;;0.00;0.00;;;12.70;99.90;;;;;;5091276;28;20658;-63
2023/10/07 07:25:04;;;;;;;0.00;0.00;;;12.80;99.90;;;;;;5091414;28;20171;-63
2023/10/07 07:27:34;;;;;;;0.20;0.20;;;12.90;99.90;;;;;;5091248;28;20172;-63
2023/10/07 07:30:17;;;;;;;0.00;0.00;;;13.00;99.90;;;;;;5091396;28;20176;-63
2023/10/07 07:32:44;;;;;;;0.00;0.00;;;13.20;99.90;;;;;;5090887;28;20180;-63
2023/10/07 07:35:10;;;;;;;0.35;0.35;;;13.40;99.90;;;;;;5091234;28;20353;-63
2023/10/07 07:37:36;;;;;;;0.10;0.10;;;13.50;99.90;;;;;;5090900;28;20164;-63
2023/10/07 07:42:55;;;;;;;0.10;0.10;;;13.80;99.90;;;;;;5091213;28;20712;-63
2023/10/07 07:45:26;;;;;;;0.28;0.28;;;13.80;99.90;;;;;;5091357;28;20202;-63
2023/10/07 07:47:55;;;;;;;0.00;0.00;;;13.90;99.90;;;;;;5091265;28;20188;-63
2023/10/07 07:50:21;;;;;;;0.10;0.10;;;14.00;99.90;;;;;;5091272;28;20218;-63
2023/10/07 07:52:50;;;;;;;0.00;0.00;;;14.20;99.90;;;;;;5090930;28;20263;-63
2023/10/07 07:55:16;;;;;;;0.10;0.10;;;14.30;99.90;;;;;;5091162;28;20172;-64
2023/10/07 07:57:44;;;;;;;0.20;0.20;;;14.50;99.90;;;;;;5091059;28;20176;-64
2023/10/07 08:00:20;;;;;;;0.08;0.08;;;14.60;99.90;;;;;;5090978;28;20238;-64
2023/10/07 08:02:48;;;;;;;0.10;0.10;;;14.60;99.90;;;;;;5090499;28;20280;-64
2023/10/07 08:05:16;;;;;;;0.00;0.00;;;14.70;99.90;;;;;;5090324;28;20582;-64
2023/10/07 08:07:43;;;;;;;0.00;0.00;;;14.70;99.90;;;;;;5089746;28;20184;-64
2023/10/07 08:10:10;;;;;;;0.00;0.00;;;14.70;99.90;;;;;;5091003;28;20250;-64
2023/10/07 08:12:37;;;;;;;0.00;0.00;;;14.70;99.90;;;;;;5090656;28;20572;-63
2023/10/07 08:17:40;;;;;;;0.10;0.10;;;14.70;99.90;;;;;;5089733;28;20175;-64
2023/10/07 08:20:12;;;;;;;0.00;0.00;;;14.70;99.90;;;;;;5090610;28;20182;-63
2023/10/07 08:22:45;;;;;;;0.28;0.28;;;14.70;99.90;;;;;;5088945;28;20218;-62
2023/10/07 08:25:15;;;;;;;0.50;0.50;;;14.70;99.90;;;;;;5090543;28;20172;-63
2023/10/07 08:27:44;;;;;;;0.10;0.10;;;14.70;99.90;;;;;;5090283;28;20196;-61
2023/10/07 08:30:14;;;;;;;0.45;0.45;;;14.70;99.90;;;;;;5090555;28;20257;-61
2023/10/07 08:32:41;;;;;;;0.00;0.00;;;14.80;99.90;;;;;;5100299;28;20671;-63
2023/10/07 08:35:18;;;;;;;0.00;0.00;;;14.90;99.90;;;;;;5090477;28;20180;-62
2023/10/07 08:37:47;;;;;;;0.10;0.10;;;15.00;99.90;;;;;;5093233;28;20562;-62
2023/10/07 08:40:15;;;;;;;1.60;1.08;;;15.10;99.90;;;;;;5103841;28;20176;-62
2023/10/07 08:42:45;;;;;;;0.00;0.00;;;15.20;99.90;;;;;;5090203;28;20204;-63
2023/10/07 08:45:14;;;;;;;0.00;0.00;;;15.30;99.90;;;;;;5092319;28;20259;-62
2023/10/07 08:47:50;;;;;;;1.35;1.27;;;15.50;99.90;;;;;;5093829;28;20176;-61
2023/10/07 08:50:23;;;;;;;0.00;0.00;;;15.60;99.90;;;;;;5092636;28;20176;-63
2023/10/07 08:53:07;;;;;;;0.38;0.38;;;15.70;99.90;;;;;;5093889;28;20635;-62
2023/10/07 08:55:33;;;;;;;0.00;0.00;;;15.80;99.90;;;;;;5093598;28;20172;-63
2023/10/07 08:58:02;;;;;;;0.00;0.00;;;15.90;99.90;;;;;;5094015;28;20204;-63
2023/10/07 09:00:32;;;;;;;0.00;0.00;;;15.90;99.90;;;;;;5093744;28;20218;-63
2023/10/07 09:02:59;;;;;;;0.00;0.00;;;15.90;99.90;;;;;;5093623;28;20334;-62
2023/10/07 09:05:27;;;;;;;0.00;0.00;;;16.00;99.90;;;;;;5093343;28;20200;-63
2023/10/07 09:07:56;;;;;;;0.00;0.00;;;15.90;99.90;;;;;;5093084;28;20550;-62
2023/10/07 09:10:28;;;;;;;0.00;0.00;;;15.80;99.90;;;;;;5102205;28;20176;-63
2023/10/07 09:12:56;;;;;;;0.00;0.00;;;15.70;99.90;;;;;;5093338;28;20647;-63
2023/10/07 09:15:29;;;;;;;0.00;0.00;;;15.70;99.90;;;;;;5093555;28;20211;-62
2023/10/07 09:18:04;;;;;;;0.00;0.00;;;15.70;99.90;;;;;;5092735;28;20176;-63
2023/10/07 09:20:36;;;;;;;0.00;0.00;;;15.70;99.90;;;;;;5093252;28;20234;-63
2023/10/07 09:23:07;;;;;;;0.00;0.00;;;15.70;99.90;;;;;;5092964;28;20219;-63
2023/10/07 09:25:33;;;;;;;0.00;0.00;;;15.70;99.90;;;;;;5092878;28;20184;-63
2023/10/07 09:28:01;;;;;;;0.00;0.00;;;15.70;99.90;;;;;;5092097;28;20579;-63
2023/10/07 09:33:13;;;;;;;0.00;0.00;;;15.80;99.90;;;;;;5087978;28;20188;-61
2023/10/07 09:35:47;;;;;;;0.15;0.15;;;15.90;99.90;;;;;;5098349;28;20178;-61
2023/10/07 09:38:27;;;;;;;0.00;0.00;;;15.90;99.90;;;;;;5093049;28;20726;-62
2023/10/07 09:41:11;;;;;;;0.00;0.00;;;16.00;99.90;;;;;;5075995;28;20219;-62
2023/10/07 09:43:37;;;;;;;0.00;0.00;;;16.00;99.90;;;;;;5077118;28;20211;-62
2023/10/07 09:46:03;;;;;;;0.00;0.00;;;15.90;99.90;;;;;;5092043;28;20208;-63
2023/10/07 09:48:31;;;;;;;0.00;0.00;;;15.90;99.90;;;;;;5093106;28;20208;-63
2023/10/07 09:51:14;;;;;;;0.38;0.28;;;15.90;99.90;;;;;;5093088;28;20210;-62
2023/10/07 09:53:55;;;;;;;0.03;0.03;;;16.00;99.90;;;;;;5091028;28;20700;-61
2023/10/07 09:56:43;;;;;;;0.00;0.00;;;16.10;99.90;;;;;;5092623;28;20196;-60
2023/10/07 09:59:26;;;;;;;0.22;0.22;;;16.10;99.90;;;;;;5097927;28;20370;-61
2023/10/07 10:02:25;;;;;;;0.00;0.00;;;16.30;99.90;;;;;;5095041;28;20242;-61
2023/10/07 10:05:11;;;;;;;0.00;0.00;;;16.40;99.90;;;;;;5082429;28;20219;-61
2023/10/07 10:08:13;;;;;;;0.00;0.00;;;16.50;99.90;;;;;;5092176;28;20168;-61
2023/10/07 10:10:44;;;;;;;0.00;0.00;;;16.50;99.90;;;;;;5090812;28;20179;-62
2023/10/07 10:13:35;;;;;;;0.00;0.00;;;16.50;99.90;;;;;;5092245;28;20271;-62
2023/10/07 10:16:00;;;;;;;0.00;0.00;;;16.50;99.90;;;;;;5090972;28;20195;-61
2023/10/07 10:19:17;;;;;;;0.00;0.00;;;16.50;99.90;;;;;;5092399;28;20226;-62
2023/10/07 10:21:22;;;;;;;0.20;0.20;;;16.50;99.90;;;;;;5086142;28;20207;-61
2023/10/07 10:23:51;;;;;;;0.00;0.00;;;16.60;99.90;;;;;;5091482;28;20211;-62
2023/10/07 10:26:23;;;;;;;0.00;0.00;;;16.70;99.90;;;;;;5091563;28;20180;-62
2023/10/07 10:29:00;;;;;;;0.00;0.00;;;16.80;99.90;;;;;;5091882;28;20233;-61
2023/10/07 10:31:32;;;;;;;0.00;0.00;;;16.90;99.90;;;;;;5077939;28;20185;-61
2023/10/07 10:34:08;;;;;;;0.00;0.00;;;17.10;99.90;;;;;;5072226;28;20173;-61
2023/10/07 10:36:41;;;;;;;0.10;0.10;;;17.20;99.90;;;;;;5072107;28;20255;-61
2023/10/07 10:39:18;;;;;;;0.00;0.00;;;17.20;99.90;;;;;;5082503;28;20609;-60
2023/10/07 10:41:44;;;;;;;0.03;0.03;;;17.30;99.90;;;;;;5091902;28;20495;-61
2023/10/07 10:44:15;;;;;;;0.25;0.10;;;17.40;99.90;;;;;;5091856;28;20172;-61
2023/10/07 10:46:44;;;;;;;0.00;0.00;;;17.40;99.90;;;;;;5091875;28;20188;-61
2023/10/07 10:49:12;;;;;;;0.00;0.00;;;17.50;99.90;;;;;;5092221;28;20184;-61
2023/10/07 10:51:45;;;;;;;0.00;0.00;;;17.60;99.90;;;;;;5091859;28;20168;-60
2023/10/07 10:54:12;;;;;;;0.13;0.13;;;17.60;99.80;;;;;;5092302;28;20176;-60
2023/10/07 10:56:58;;;;;;;0.00;0.00;;;17.50;99.80;;;;;;5091698;28;20176;-61
2023/10/07 10:59:47;;;;;;;0.00;0.00;;;17.50;99.90;;;;;;5091948;28;20180;-61
2023/10/07 11:02:23;;;;;;;0.00;0.00;;;17.50;99.50;;;;;;5091967;28;20208;-61
2023/10/07 11:04:56;;;;;;;0.00;0.00;;;17.40;99.50;;;;;;5091900;28;20183;-61
2023/10/07 11:07:24;;;;;;;0.00;0.00;;;17.40;99.50;;;;;;5091435;28;20206;-61
2023/10/07 11:09:54;;;;;;;0.00;0.00;;;17.30;99.50;;;;;;5091785;28;20627;-62
2023/10/07 11:12:26;;;;;;;0.00;0.00;;;17.40;99.70;;;;;;5091675;28;20516;-61
2023/10/07 11:15:03;;;;;;;0.10;0.08;;;17.40;99.60;;;;;;5091713;28;20188;-60
2023/10/07 11:17:29;;;;;;;0.00;0.00;;;17.40;99.30;;;;;;5081773;28;20279;-61
2023/10/07 11:19:54;;;;;;;0.00;0.00;;;17.40;99.30;;;;;;5071479;28;20260;-61
2023/10/07 11:22:21;;;;;;;0.00;0.00;;;17.50;99.30;;;;;;5071576;28;20291;-60
2023/10/07 11:24:49;;;;;;;0.00;0.00;;;17.60;99.30;;;;;;5071830;28;20342;-60
2023/10/07 11:27:18;;;;;;;0.00;0.00;;;17.70;99.20;;;;;;5090304;28;20172;-61
2023/10/07 11:29:44;;;;;;;0.00;0.00;;;17.80;99.20;;;;;;5091120;28;20175;-61
2023/10/07 11:32:12;;;;;;;0.00;0.00;;;17.90;99.20;;;;;;5091058;28;20180;-61
2023/10/07 11:34:40;;;;;;;0.25;0.25;;;17.90;99.20;;;;;;5091129;28;20187;-61
2023/10/07 11:37:10;;;;;;;0.30;0.30;;;18.00;99.20;;;;;;5091587;28;20172;-60
2023/10/07 11:39:45;;;;;;;0.00;0.00;;;18.10;99.10;;;;;;5090549;28;20216;-60
2023/10/07 11:42:21;;;;;;;0.00;0.00;;;18.20;98.90;;;;;;5091327;28;20196;-60
2023/10/07 11:44:54;;;;;;;0.00;0.00;;;18.20;98.90;;;;;;5091265;28;20176;-60
2023/10/07 11:47:23;;;;;;;0.38;0.38;;;18.20;99.00;;;;;;5090995;28;20647;-60
2023/10/07 11:49:49;;;;;;;0.00;0.00;;;18.20;99.10;;;;;;5091382;28;20184;-60
2023/10/07 11:52:17;;;;;;;0.22;0.22;;;18.30;99.30;;;;;;5091410;28;20176;-60
2023/10/07 11:54:43;;;;;;;0.00;0.00;;;18.40;99.00;;;;;;5091120;28;20673;-61
2023/10/07 11:57:10;;;;;;;0.00;0.00;;;18.50;98.80;;;;;;5091194;28;20199;-60
2023/10/07 11:59:41;;;;;;;0.00;0.00;;;18.40;98.50;;;;;;5091256;28;20544;-60
2023/10/07 12:02:10;;;;;;;0.00;0.00;;;18.60;98.80;;;;;;5090978;28;20196;-60
2023/10/07 12:04:39;;;;;;;0.17;0.17;;;18.70;98.50;;;;;;5091304;28;20207;-60
2023/10/07 12:07:07;;;;;;;0.00;0.00;;;18.70;98.50;;;;;;5090905;28;20180;-60
2023/10/07 12:09:33;;;;;;;0.00;0.00;;;18.70;98.10;;;;;;5091049;28;20184;-61
2023/10/07 12:11:59;;;;;;;0.05;0.05;;;18.70;98.30;;;;;;5091171;28;20184;-61
2023/10/07 12:14:27;;;;;;;0.00;0.00;;;18.70;98.10;;;;;;5091173;28;20172;-61
2023/10/07 12:16:52;;;;;;;0.00;0.00;;;18.70;97.70;;;;;;5091051;28;20180;-60
2023/10/07 12:19:18;;;;;;;0.00;0.00;;;18.80;97.80;;;;;;5091788;28;20267;-60
2023/10/07 12:21:47;;;;;;;0.00;0.00;;;18.80;97.40;;;;;;5094403;28;20184;-60
2023/10/07 12:24:14;;;;;;;0.00;0.00;;;18.90;97.10;;;;;;5094913;28;20192;-61
2023/10/07 12:26:39;;;;;;;0.00;0.00;;;18.90;97.20;;;;;;5094499;28;20207;-60
2023/10/07 12:29:06;;;;;;;0.00;0.00;;;19.00;96.90;;;;;;5091181;28;20706;-61
2023/10/07 12:31:32;;;;;;;0.00;0.00;;;19.00;96.70;;;;;;5099736;28;20218;-61
2023/10/07 12:33:59;;;;;;;0.00;0.00;;;19.00;96.50;;;;;;5113865;28;20203;-61
2023/10/07 12:36:25;;;;;;;0.00;0.00;;;19.00;96.50;;;;;;5094130;28;20691;-63
2023/10/07 12:38:50;;;;;;;0.00;0.00;;;19.00;96.40;;;;;;5094084;28;20315;-61
2023/10/07 12:41:16;;;;;;;0.00;0.00;;;18.90;96.00;;;;;;5094064;28;20172;-62
2023/10/07 12:43:41;;;;;;;0.00;0.00;;;19.00;95.90;;;;;;5093777;28;20207;-62
2023/10/07 12:46:09;;;;;;;0.00;0.00;;;18.90;95.70;;;;;;5094635;28;20165;-62
2023/10/07 12:48:40;;;;;;;0.00;0.00;;;18.90;95.80;;;;;;5094345;28;20179;-62
2023/10/07 12:51:06;;;;;;;0.00;0.00;;;19.00;96.20;;;;;;5094504;28;20681;-62
2023/10/07 12:53:36;;;;;;;0.08;0.08;;;19.10;96.00;;;;;;5094365;28;20188;-61
2023/10/07 12:56:17;;;;;;;0.00;0.00;;;19.20;95.70;;;;;;5093058;28;20543;-61
2023/10/07 12:58:45;;;;;;;0.00;0.00;;;19.40;95.50;;;;;;5093714;28;20188;-62
2023/10/07 13:01:14;;;;;;;0.00;0.00;;;19.50;95.30;;;;;;5094748;28;20243;-63
2023/10/07 13:03:42;;;;;;;0.00;0.00;;;19.70;95.30;;;;;;5094033;28;20599;-61
2023/10/07 13:06:10;;;;;;;0.47;0.47;;;19.80;95.00;;;;;;5094176;28;20560;-61
2023/10/07 13:08:38;;;;;;;0.00;0.00;;;20.00;94.90;;;;;;5094170;28;20184;-62
2023/10/07 13:11:11;;;;;;;0.00;0.00;;;20.20;94.80;;;;;;5093996;28;20230;-61
2023/10/07 13:13:40;;;;;;;0.00;0.00;;;20.30;94.00;;;;;;5094036;28;20180;-62
2023/10/07 13:16:10;;;;;;;0.00;0.00;;;20.30;93.70;;;;;;5094037;28;20315;-61
2023/10/07 13:18:45;;;;;;;0.00;0.00;;;20.40;94.10;;;;;;5093714;28;20177;-61
2023/10/07 13:21:13;;;;;;;0.00;0.00;;;20.50;93.60;;;;;;5094015;28;20176;-61
2023/10/07 13:23:40;;;;;;;0.38;0.38;;;20.60;93.60;;;;;;5089090;28;20302;-61
2023/10/07 13:26:11;;;;;;;0.00;0.00;;;20.60;93.00;;;;;;5093396;28;20651;-61
2023/10/07 13:28:38;;;;;;;0.00;0.00;;;20.60;93.10;;;;;;5093766;28;20179;-61
2023/10/07 13:31:08;;;;;;;0.00;0.00;;;20.50;93.10;;;;;;5093104;28;20187;-61
2023/10/07 13:33:37;;;;;;;0.00;0.00;;;20.40;93.50;;;;;;5093722;28;20172;-61
2023/10/07 13:36:07;;;;;;;0.00;0.00;;;20.40;93.20;;;;;;5093578;28;20690;-62
2023/10/07 13:38:33;;;;;;;0.10;0.10;;;20.50;93.40;;;;;;5093318;28;20289;-62
2023/10/07 13:41:03;;;;;;;0.00;0.00;;;20.60;93.40;;;;;;5093479;28;20180;-62
2023/10/07 13:43:29;;;;;;;0.00;0.00;;;20.60;92.90;;;;;;5093123;28;20220;-63
2023/10/07 13:45:56;;;;;;;0.00;0.00;;;20.70;92.80;;;;;;5093361;28;20179;-62
2023/10/07 13:48:22;;;;;;;0.00;0.00;;;20.80;92.80;;;;;;5093103;28;20196;-63
2023/10/07 13:50:48;;;;;;;0.10;0.10;;;20.80;92.80;;;;;;5090020;28;20176;-62
2023/10/07 13:53:15;;;;;;;0.00;0.00;;;20.80;91.60;;;;;;5091624;28;20190;-62
2023/10/07 13:58:14;;;;;;;0.05;0.05;;;20.60;90.90;;;;;;5091370;28;20585;-62